sensor_id;sensor_type;location;lat;lon;timestamp;temperature;humidity
52899;DHT22;38763;53.096;6.062;2023-02-01T00:01:28;5.90;99.90
52899;DHT22;38763;53.096;6.062;2023-02-01T00:03:53;5.80;99.90
52899;DHT22;38763;53.096;6.062;2023-02-01T00:06:19;5.80;99.90
52899;DHT22;38763;53.096;6.062;2023-02-01T00:08:45;5.80;99.90
52899;DHT22;38763;53.096;6.062;2023-02-01T00:11:11;5.80;99.90
52899;DHT22;38763;53.096;6.062;2023-02-01T00:13:38;5.80;99.90
52899;DHT22;38763;53.096;6.062;2023-02-01T00:16:07;5.80;99.90
52899;DHT22;38763;53.096;6.062;2023-02-01T00:18:33;5.80;99.90
52899;DHT22;38763;53.096;6.062;2023-02-01T00:20:59;5.80;99.90
52899;DHT22;38763;53.096;6.062;2023-02-01T00:23:25;5.80;99.90
52899;DHT22;38763;53.096;6.062;2023-02-01T00:25:51;5.90;99.90
52899;DHT22;38763;53.096;6.062;2023-02-01T00:28:16;5.90;99.90
52899;DHT22;38763;53.096;6.062;2023-02-01T00:30:42;5.90;99.90
52899;DHT22;38763;53.096;6.062;2023-02-01T00:33:07;5.90;99.90
52899;DHT22;38763;53.096;6.062;2023-02-01T00:35:36;5.90;99.90
52899;DHT22;38763;53.096;6.062;2023-02-01T00:38:02;5.90;99.90
52899;DHT22;38763;53.096;6.062;2023-02-01T00:40:28;5.90;99.90
52899;DHT22;38763;53.096;6.062;2023-02-01T00:42:53;5.90;99.90
52899;DHT22;38763;53.096;6.062;2023-02-01T00:45:19;5.90;99.90
52899;DHT22;38763;53.096;6.062;2023-02-01T00:47:45;5.90;99.90
52899;DHT22;38763;53.096;6.062;2023-02-01T00:50:11;5.90;99.90
52899;DHT22;38763;53.096;6.062;2023-02-01T00:52:36;5.90;99.90
52899;DHT22;38763;53.096;6.062;2023-02-01T00:55:02;6.00;99.90
52899;DHT22;38763;53.096;6.062;2023-02-01T00:57:28;6.00;99.90
52899;DHT22;38763;53.096;6.062;2023-02-01T00:59:53;6.00;99.90
52899;DHT22;38763;53.096;6.062;2023-02-01T01:02:19;6.00;99.90
52899;DHT22;38763;53.096;6.062;2023-02-01T01:04:45;6.00;99.90
52899;DHT22;38763;53.096;6.062;2023-02-01T01:07:10;6.00;99.90
52899;DHT22;38763;53.096;6.062;2023-02-01T01:09:36;6.10;99.90
52899;DHT22;38763;53.096;6.062;2023-02-01T01:12:02;6.10;99.90
52899;DHT22;38763;53.096;6.062;2023-02-01T01:14:31;6.10;99.90
52899;DHT22;38763;53.096;6.062;2023-02-01T01:16:57;6.10;99.90
52899;DHT22;38763;53.096;6.062;2023-02-01T01:19:23;6.20;99.90
52899;DHT22;38763;53.096;6.062;2023-02-01T01:21:48;6.10;99.90
52899;DHT22;38763;53.096;6.062;2023-02-01T01:24:14;6.10;99.90
52899;DHT22;38763;53.096;6.062;2023-02-01T01:26:40;6.20;99.90
52899;DHT22;38763;53.096;6.062;2023-02-01T01:29:05;6.10;99.90
52899;DHT22;38763;53.096;6.062;2023-02-01T01:31:31;6.20;99.90
52899;DHT22;38763;53.096;6.062;2023-02-01T01:41:31;6.20;99.90
52899;DHT22;38763;53.096;6.062;2023-02-01T01:44:00;6.10;99.90
52899;DHT22;38763;53.096;6.062;2023-02-01T01:46:34;6.10;99.90
52899;DHT22;38763;53.096;6.062;2023-02-01T01:49:17;6.10;99.90
52899;DHT22;38763;53.096;6.062;2023-02-01T01:51:52;6.10;99.90
52899;DHT22;38763;53.096;6.062;2023-02-01T01:54:38;6.00;99.90
52899;DHT22;38763;53.096;6.062;2023-02-01T01:57:11;6.00;99.90
52899;DHT22;38763;53.096;6.062;2023-02-01T01:59:40;6.00;99.90
52899;DHT22;38763;53.096;6.062;2023-02-01T02:02:06;5.90;99.90
52899;DHT22;38763;53.096;6.062;2023-02-01T02:04:34;5.90;99.90
52899;DHT22;38763;53.096;6.062;2023-02-01T02:07:08;6.00;99.90
52899;DHT22;38763;53.096;6.062;2023-02-01T02:09:35;5.90;99.90
52899;DHT22;38763;53.096;6.062;2023-02-01T02:12:01;5.90;99.90
52899;DHT22;38763;53.096;6.062;2023-02-01T02:14:27;5.90;99.90
52899;DHT22;38763;53.096;6.062;2023-02-01T02:17:15;5.90;99.90
52899;DHT22;38763;53.096;6.062;2023-02-01T02:20:04;5.90;99.90
52899;DHT22;38763;53.096;6.062;2023-02-01T02:30:52;6.00;99.90
52899;DHT22;38763;53.096;6.062;2023-02-01T02:36:01;6.00;99.90
52899;DHT22;38763;53.096;6.062;2023-02-01T02:38:56;6.00;99.90
52899;DHT22;38763;53.096;6.062;2023-02-01T02:44:44;6.00;99.90
52899;DHT22;38763;53.096;6.062;2023-02-01T02:50:21;6.00;99.90
52899;DHT22;38763;53.096;6.062;2023-02-01T02:53:18;6.00;99.90
52899;DHT22;38763;53.096;6.062;2023-02-01T02:56:05;6.00;99.90
52899;DHT22;38763;53.096;6.062;2023-02-01T02:58:50;6.00;99.90
52899;DHT22;38763;53.096;6.062;2023-02-01T03:01:35;6.10;99.90
52899;DHT22;38763;53.096;6.062;2023-02-01T03:04:20;6.00;99.90
52899;DHT22;38763;53.096;6.062;2023-02-01T03:06:46;6.10;99.90
52899;DHT22;38763;53.096;6.062;2023-02-01T03:09:26;6.10;99.90
52899;DHT22;38763;53.096;6.062;2023-02-01T03:11:56;6.10;99.90
52899;DHT22;38763;53.096;6.062;2023-02-01T03:14:44;6.10;99.90
52899;DHT22;38763;53.096;6.062;2023-02-01T03:17:14;6.10;99.90
52899;DHT22;38763;53.096;6.062;2023-02-01T03:19:44;6.10;99.90
52899;DHT22;38763;53.096;6.062;2023-02-01T03:22:17;6.10;99.90
52899;DHT22;38763;53.096;6.062;2023-02-01T03:25:11;6.10;99.90
52899;DHT22;38763;53.096;6.062;2023-02-01T03:27:43;6.10;99.90
52899;DHT22;38763;53.096;6.062;2023-02-01T03:30:33;6.10;99.90
52899;DHT22;38763;53.096;6.062;2023-02-01T03:33:01;6.20;99.90
52899;DHT22;38763;53.096;6.062;2023-02-01T03:35:36;6.20;99.90
52899;DHT22;38763;53.096;6.062;2023-02-01T03:43:32;6.30;99.90
52899;DHT22;38763;53.096;6.062;2023-02-01T03:46:02;6.30;99.90
52899;DHT22;38763;53.096;6.062;2023-02-01T03:48:31;6.40;99.90
52899;DHT22;38763;53.096;6.062;2023-02-01T03:51:00;6.30;99.90
52899;DHT22;38763;53.096;6.062;2023-02-01T03:53:28;6.40;99.90
52899;DHT22;38763;53.096;6.062;2023-02-01T03:55:55;6.40;99.90
52899;DHT22;38763;53.096;6.062;2023-02-01T03:58:22;6.40;99.90
52899;DHT22;38763;53.096;6.062;2023-02-01T04:00:59;6.40;99.90
52899;DHT22;38763;53.096;6.062;2023-02-01T04:03:26;6.30;99.90
52899;DHT22;38763;53.096;6.062;2023-02-01T04:05:52;6.30;99.90
52899;DHT22;38763;53.096;6.062;2023-02-01T04:08:19;6.30;99.90
52899;DHT22;38763;53.096;6.062;2023-02-01T04:10:45;6.30;99.90
52899;DHT22;38763;53.096;6.062;2023-02-01T04:13:11;6.30;99.90
52899;DHT22;38763;53.096;6.062;2023-02-01T04:15:37;6.30;99.90
52899;DHT22;38763;53.096;6.062;2023-02-01T04:18:02;6.20;99.90
52899;DHT22;38763;53.096;6.062;2023-02-01T04:20:28;6.20;99.90
52899;DHT22;38763;53.096;6.062;2023-02-01T04:22:54;6.30;99.90
52899;DHT22;38763;53.096;6.062;2023-02-01T04:25:20;6.30;99.90
52899;DHT22;38763;53.096;6.062;2023-02-01T04:27:46;6.20;99.90
52899;DHT22;38763;53.096;6.062;2023-02-01T04:30:12;6.20;99.90
52899;DHT22;38763;53.096;6.062;2023-02-01T04:32:39;6.20;99.90
52899;DHT22;38763;53.096;6.062;2023-02-01T04:35:06;6.20;99.90
52899;DHT22;38763;53.096;6.062;2023-02-01T04:37:31;6.20;99.90
52899;DHT22;38763;53.096;6.062;2023-02-01T04:39:57;6.30;99.90
52899;DHT22;38763;53.096;6.062;2023-02-01T04:42:23;6.20;99.90
52899;DHT22;38763;53.096;6.062;2023-02-01T04:44:48;6.20;99.90
52899;DHT22;38763;53.096;6.062;2023-02-01T04:47:14;6.10;99.90
52899;DHT22;38763;53.096;6.062;2023-02-01T04:49:41;6.00;99.90
52899;DHT22;38763;53.096;6.062;2023-02-01T04:52:07;6.00;99.90
52899;DHT22;38763;53.096;6.062;2023-02-01T04:54:33;5.90;99.90
52899;DHT22;38763;53.096;6.062;2023-02-01T04:56:58;5.90;99.90
52899;DHT22;38763;53.096;6.062;2023-02-01T04:59:24;5.90;99.90
52899;DHT22;38763;53.096;6.062;2023-02-01T05:01:50;5.90;99.90
52899;DHT22;38763;53.096;6.062;2023-02-01T05:04:15;6.00;99.90
52899;DHT22;38763;53.096;6.062;2023-02-01T05:06:44;6.00;99.90
52899;DHT22;38763;53.096;6.062;2023-02-01T05:09:09;6.00;99.90
52899;DHT22;38763;53.096;6.062;2023-02-01T05:11:35;6.10;99.90
52899;DHT22;38763;53.096;6.062;2023-02-01T05:14:19;6.10;99.90
52899;DHT22;38763;53.096;6.062;2023-02-01T05:16:45;6.10;99.90
52899;DHT22;38763;53.096;6.062;2023-02-01T05:19:11;6.10;99.90
52899;DHT22;38763;53.096;6.062;2023-02-01T05:21:36;6.10;99.90
52899;DHT22;38763;53.096;6.062;2023-02-01T05:24:02;6.20;99.90
52899;DHT22;38763;53.096;6.062;2023-02-01T05:26:45;6.20;99.90
52899;DHT22;38763;53.096;6.062;2023-02-01T05:29:11;6.20;99.90
52899;DHT22;38763;53.096;6.062;2023-02-01T05:31:38;6.30;99.90
52899;DHT22;38763;53.096;6.062;2023-02-01T05:34:05;6.20;99.90
52899;DHT22;38763;53.096;6.062;2023-02-01T05:36:31;6.30;99.90
52899;DHT22;38763;53.096;6.062;2023-02-01T05:38:56;6.30;99.90
52899;DHT22;38763;53.096;6.062;2023-02-01T05:41:22;6.30;99.90
52899;DHT22;38763;53.096;6.062;2023-02-01T05:43:48;6.30;99.90
52899;DHT22;38763;53.096;6.062;2023-02-01T05:46:14;6.30;99.90
52899;DHT22;38763;53.096;6.062;2023-02-01T05:48:40;6.30;99.90
52899;DHT22;38763;53.096;6.062;2023-02-01T05:51:06;6.30;99.90
52899;DHT22;38763;53.096;6.062;2023-02-01T05:53:32;6.20;99.90
52899;DHT22;38763;53.096;6.062;2023-02-01T05:55:58;6.10;99.90
52899;DHT22;38763;53.096;6.062;2023-02-01T05:58:23;6.10;99.90
52899;DHT22;38763;53.096;6.062;2023-02-01T06:00:49;6.10;99.90
52899;DHT22;38763;53.096;6.062;2023-02-01T06:03:15;6.10;99.90
52899;DHT22;38763;53.096;6.062;2023-02-01T06:05:43;6.10;99.90
52899;DHT22;38763;53.096;6.062;2023-02-01T06:08:08;6.00;99.90
52899;DHT22;38763;53.096;6.062;2023-02-01T06:10:34;6.00;99.90
52899;DHT22;38763;53.096;6.062;2023-02-01T06:13:00;6.00;99.90
52899;DHT22;38763;53.096;6.062;2023-02-01T06:15:25;5.90;99.90
52899;DHT22;38763;53.096;6.062;2023-02-01T06:17:51;6.00;99.90
52899;DHT22;38763;53.096;6.062;2023-02-01T06:20:17;5.90;99.90
52899;DHT22;38763;53.096;6.062;2023-02-01T06:22:43;5.80;99.90
52899;DHT22;38763;53.096;6.062;2023-02-01T06:25:09;5.70;99.90
52899;DHT22;38763;53.096;6.062;2023-02-01T06:27:36;5.60;99.90
52899;DHT22;38763;53.096;6.062;2023-02-01T06:30:03;5.60;99.90
52899;DHT22;38763;53.096;6.062;2023-02-01T06:32:29;5.70;99.90
52899;DHT22;38763;53.096;6.062;2023-02-01T06:34:54;5.70;99.90
52899;DHT22;38763;53.096;6.062;2023-02-01T06:37:22;5.70;99.90
52899;DHT22;38763;53.096;6.062;2023-02-01T06:39:48;5.80;99.90
52899;DHT22;38763;53.096;6.062;2023-02-01T06:42:14;5.80;99.90
52899;DHT22;38763;53.096;6.062;2023-02-01T06:44:39;5.80;99.90
52899;DHT22;38763;53.096;6.062;2023-02-01T06:47:06;5.90;99.90
52899;DHT22;38763;53.096;6.062;2023-02-01T06:49:32;5.90;99.90
52899;DHT22;38763;53.096;6.062;2023-02-01T06:51:57;5.90;99.90
52899;DHT22;38763;53.096;6.062;2023-02-01T06:54:28;5.90;99.90
52899;DHT22;38763;53.096;6.062;2023-02-01T06:56:57;5.90;99.90
52899;DHT22;38763;53.096;6.062;2023-02-01T06:59:23;5.90;99.90
52899;DHT22;38763;53.096;6.062;2023-02-01T07:01:48;6.00;99.90
52899;DHT22;38763;53.096;6.062;2023-02-01T07:04:14;6.00;99.90
52899;DHT22;38763;53.096;6.062;2023-02-01T07:06:40;6.00;99.90
52899;DHT22;38763;53.096;6.062;2023-02-01T07:09:07;6.00;99.90
52899;DHT22;38763;53.096;6.062;2023-02-01T07:11:33;6.00;99.90
52899;DHT22;38763;53.096;6.062;2023-02-01T07:13:58;6.00;99.90
52899;DHT22;38763;53.096;6.062;2023-02-01T07:16:24;6.00;99.90
52899;DHT22;38763;53.096;6.062;2023-02-01T07:18:51;6.00;99.90
52899;DHT22;38763;53.096;6.062;2023-02-01T07:21:18;6.10;99.90
52899;DHT22;38763;53.096;6.062;2023-02-01T07:23:44;6.00;99.90
52899;DHT22;38763;53.096;6.062;2023-02-01T07:26:11;5.90;99.90
52899;DHT22;38763;53.096;6.062;2023-02-01T07:28:38;5.90;99.90
52899;DHT22;38763;53.096;6.062;2023-02-01T07:31:05;5.90;99.90
52899;DHT22;38763;53.096;6.062;2023-02-01T07:33:31;5.80;99.90
52899;DHT22;38763;53.096;6.062;2023-02-01T07:35:57;5.80;99.90
52899;DHT22;38763;53.096;6.062;2023-02-01T07:38:22;5.80;99.90
52899;DHT22;38763;53.096;6.062;2023-02-01T07:40:49;5.80;99.90
52899;DHT22;38763;53.096;6.062;2023-02-01T07:43:15;5.80;99.90
52899;DHT22;38763;53.096;6.062;2023-02-01T07:45:40;5.80;99.90
52899;DHT22;38763;53.096;6.062;2023-02-01T07:48:06;5.80;99.90
52899;DHT22;38763;53.096;6.062;2023-02-01T07:50:32;5.80;99.90
52899;DHT22;38763;53.096;6.062;2023-02-01T07:53:01;5.80;99.90
52899;DHT22;38763;53.096;6.062;2023-02-01T07:55:26;5.80;99.90
52899;DHT22;38763;53.096;6.062;2023-02-01T07:57:52;5.80;99.90
52899;DHT22;38763;53.096;6.062;2023-02-01T08:00:18;5.90;99.90
52899;DHT22;38763;53.096;6.062;2023-02-01T08:03:04;5.90;99.90
52899;DHT22;38763;53.096;6.062;2023-02-01T08:05:30;5.90;99.90
52899;DHT22;38763;53.096;6.062;2023-02-01T08:07:55;5.90;99.90
52899;DHT22;38763;53.096;6.062;2023-02-01T08:10:21;5.90;99.90
52899;DHT22;38763;53.096;6.062;2023-02-01T08:12:47;5.90;99.90
52899;DHT22;38763;53.096;6.062;2023-02-01T08:15:15;5.90;99.90
52899;DHT22;38763;53.096;6.062;2023-02-01T08:17:47;6.00;99.90
52899;DHT22;38763;53.096;6.062;2023-02-01T08:20:13;6.00;99.90
52899;DHT22;38763;53.096;6.062;2023-02-01T08:22:39;6.00;99.90
52899;DHT22;38763;53.096;6.062;2023-02-01T08:25:05;5.90;99.90
52899;DHT22;38763;53.096;6.062;2023-02-01T08:27:33;6.00;99.90
52899;DHT22;38763;53.096;6.062;2023-02-01T08:29:58;6.00;99.90
52899;DHT22;38763;53.096;6.062;2023-02-01T08:32:25;6.00;99.90
52899;DHT22;38763;53.096;6.062;2023-02-01T08:34:50;6.00;99.90
52899;DHT22;38763;53.096;6.062;2023-02-01T08:37:16;6.10;99.90
52899;DHT22;38763;53.096;6.062;2023-02-01T08:39:42;6.10;99.90
52899;DHT22;38763;53.096;6.062;2023-02-01T08:42:10;6.10;99.90
52899;DHT22;38763;53.096;6.062;2023-02-01T08:44:55;6.20;99.90
52899;DHT22;38763;53.096;6.062;2023-02-01T08:47:21;6.20;99.90
52899;DHT22;38763;53.096;6.062;2023-02-01T08:49:47;6.20;99.90
52899;DHT22;38763;53.096;6.062;2023-02-01T08:52:13;6.20;99.90
52899;DHT22;38763;53.096;6.062;2023-02-01T08:54:39;6.20;99.90
52899;DHT22;38763;53.096;6.062;2023-02-01T08:57:07;6.30;99.90
52899;DHT22;38763;53.096;6.062;2023-02-01T08:59:34;6.30;99.90
52899;DHT22;38763;53.096;6.062;2023-02-01T09:02:00;6.20;99.90
52899;DHT22;38763;53.096;6.062;2023-02-01T09:04:26;6.20;99.90
52899;DHT22;38763;53.096;6.062;2023-02-01T09:06:53;6.20;99.90
52899;DHT22;38763;53.096;6.062;2023-02-01T09:09:21;6.20;99.90
52899;DHT22;38763;53.096;6.062;2023-02-01T09:11:47;6.20;99.90
52899;DHT22;38763;53.096;6.062;2023-02-01T09:14:13;6.30;99.90
52899;DHT22;38763;53.096;6.062;2023-02-01T09:16:38;6.20;99.90
52899;DHT22;38763;53.096;6.062;2023-02-01T09:19:04;6.30;99.90
52899;DHT22;38763;53.096;6.062;2023-02-01T09:21:30;6.20;99.90
52899;DHT22;38763;53.096;6.062;2023-02-01T09:23:55;6.30;99.90
52899;DHT22;38763;53.096;6.062;2023-02-01T09:26:21;6.30;99.90
52899;DHT22;38763;53.096;6.062;2023-02-01T09:28:46;6.30;99.90
52899;DHT22;38763;53.096;6.062;2023-02-01T09:31:12;6.30;99.90
52899;DHT22;38763;53.096;6.062;2023-02-01T09:33:38;6.40;99.90
52899;DHT22;38763;53.096;6.062;2023-02-01T09:36:05;6.40;99.90
52899;DHT22;38763;53.096;6.062;2023-02-01T09:38:31;6.40;99.90
52899;DHT22;38763;53.096;6.062;2023-02-01T09:40:58;6.40;99.90
52899;DHT22;38763;53.096;6.062;2023-02-01T09:48:43;6.50;99.90
52899;DHT22;38763;53.096;6.062;2023-02-01T09:51:20;6.60;99.90
52899;DHT22;38763;53.096;6.062;2023-02-01T09:54:02;6.50;99.90
52899;DHT22;38763;53.096;6.062;2023-02-01T09:56:36;6.60;99.90
52899;DHT22;38763;53.096;6.062;2023-02-01T10:01:47;6.50;99.90
52899;DHT22;38763;53.096;6.062;2023-02-01T10:04:14;6.60;99.90
52899;DHT22;38763;53.096;6.062;2023-02-01T10:09:57;6.50;99.90
52899;DHT22;38763;53.096;6.062;2023-02-01T10:28:14;6.80;99.90
52899;DHT22;38763;53.096;6.062;2023-02-01T10:30:45;6.90;99.90
52899;DHT22;38763;53.096;6.062;2023-02-01T10:33:32;6.90;99.90
52899;DHT22;38763;53.096;6.062;2023-02-01T10:36:08;7.00;99.90
52899;DHT22;38763;53.096;6.062;2023-02-01T10:38:35;7.00;99.90
52899;DHT22;38763;53.096;6.062;2023-02-01T10:41:12;7.00;99.90
52899;DHT22;38763;53.096;6.062;2023-02-01T10:43:38;7.00;99.90
52899;DHT22;38763;53.096;6.062;2023-02-01T10:46:05;7.10;99.90
52899;DHT22;38763;53.096;6.062;2023-02-01T10:48:32;7.10;99.90
52899;DHT22;38763;53.096;6.062;2023-02-01T10:51:12;7.10;99.90
52899;DHT22;38763;53.096;6.062;2023-02-01T10:53:48;7.20;99.90
52899;DHT22;38763;53.096;6.062;2023-02-01T10:56:25;7.10;99.90
52899;DHT22;38763;53.096;6.062;2023-02-01T10:58:59;7.10;99.90
52899;DHT22;38763;53.096;6.062;2023-02-01T11:01:34;7.10;99.90
52899;DHT22;38763;53.096;6.062;2023-02-01T11:04:03;7.10;99.90
52899;DHT22;38763;53.096;6.062;2023-02-01T11:06:32;7.20;99.90
52899;DHT22;38763;53.096;6.062;2023-02-01T11:09:22;7.30;99.90
52899;DHT22;38763;53.096;6.062;2023-02-01T11:14:20;7.30;99.90
52899;DHT22;38763;53.096;6.062;2023-02-01T11:16:52;7.30;99.90
52899;DHT22;38763;53.096;6.062;2023-02-01T11:19:18;7.30;99.90
52899;DHT22;38763;53.096;6.062;2023-02-01T11:21:44;7.40;99.90
52899;DHT22;38763;53.096;6.062;2023-02-01T11:24:34;7.40;99.90
52899;DHT22;38763;53.096;6.062;2023-02-01T11:27:03;7.40;99.90
52899;DHT22;38763;53.096;6.062;2023-02-01T11:29:41;7.40;99.90
52899;DHT22;38763;53.096;6.062;2023-02-01T11:32:09;7.40;99.90
52899;DHT22;38763;53.096;6.062;2023-02-01T11:34:46;7.40;99.90
52899;DHT22;38763;53.096;6.062;2023-02-01T11:37:23;7.40;99.90
52899;DHT22;38763;53.096;6.062;2023-02-01T11:39:58;7.30;99.90
52899;DHT22;38763;53.096;6.062;2023-02-01T11:42:25;7.40;99.90
52899;DHT22;38763;53.096;6.062;2023-02-01T11:45:18;7.40;99.90
52899;DHT22;38763;53.096;6.062;2023-02-01T11:47:44;7.40;99.90
52899;DHT22;38763;53.096;6.062;2023-02-01T11:50:20;7.40;99.90
52899;DHT22;38763;53.096;6.062;2023-02-01T12:00:47;7.30;99.90
52899;DHT22;38763;53.096;6.062;2023-02-01T12:25:46;7.80;99.90
52899;DHT22;38763;53.096;6.062;2023-02-01T12:34:34;7.90;99.90
52899;DHT22;38763;53.096;6.062;2023-02-01T12:39:43;7.80;99.90
52899;DHT22;38763;53.096;6.062;2023-02-01T12:44:54;7.90;99.90
52899;DHT22;38763;53.096;6.062;2023-02-01T12:48:12;7.80;99.90
52899;DHT22;38763;53.096;6.062;2023-02-01T12:50:21;7.80;99.90
52899;DHT22;38763;53.096;6.062;2023-02-01T12:52:50;7.90;99.90
52899;DHT22;38763;53.096;6.062;2023-02-01T12:57:45;7.80;99.90
52899;DHT22;38763;53.096;6.062;2023-02-01T13:00:24;7.90;99.90
52899;DHT22;38763;53.096;6.062;2023-02-01T13:05:58;7.80;99.90
52899;DHT22;38763;53.096;6.062;2023-02-01T13:08:46;7.80;99.90
52899;DHT22;38763;53.096;6.062;2023-02-01T13:11:15;7.70;99.90
52899;DHT22;38763;53.096;6.062;2023-02-01T13:16:45;7.50;99.90
52899;DHT22;38763;53.096;6.062;2023-02-01T13:22:06;7.60;99.90
52899;DHT22;38763;53.096;6.062;2023-02-01T13:24:46;7.70;99.90
52899;DHT22;38763;53.096;6.062;2023-02-01T13:27:14;7.70;99.90
52899;DHT22;38763;53.096;6.062;2023-02-01T13:29:51;7.70;99.90
52899;DHT22;38763;53.096;6.062;2023-02-01T13:33:01;7.70;99.90
52899;DHT22;38763;53.096;6.062;2023-02-01T13:35:28;7.70;99.90
52899;DHT22;38763;53.096;6.062;2023-02-01T13:43:38;8.00;99.90
52899;DHT22;38763;53.096;6.062;2023-02-01T13:46:09;8.00;99.90
52899;DHT22;38763;53.096;6.062;2023-02-01T13:48:49;8.00;99.90
52899;DHT22;38763;53.096;6.062;2023-02-01T13:51:28;8.00;99.90
52899;DHT22;38763;53.096;6.062;2023-02-01T13:53:56;8.00;99.90
52899;DHT22;38763;53.096;6.062;2023-02-01T13:56:23;8.00;99.90
52899;DHT22;38763;53.096;6.062;2023-02-01T13:58:50;8.00;99.90
52899;DHT22;38763;53.096;6.062;2023-02-01T14:04:46;8.00;99.90
52899;DHT22;38763;53.096;6.062;2023-02-01T14:06:54;7.90;99.90
52899;DHT22;38763;53.096;6.062;2023-02-01T14:09:32;7.80;99.90
52899;DHT22;38763;53.096;6.062;2023-02-01T14:15:24;7.70;99.90
52899;DHT22;38763;53.096;6.062;2023-02-01T14:17:50;7.80;99.90
52899;DHT22;38763;53.096;6.062;2023-02-01T14:20:41;7.70;99.90
52899;DHT22;38763;53.096;6.062;2023-02-01T14:23:15;7.80;99.90
52899;DHT22;38763;53.096;6.062;2023-02-01T14:25:42;7.80;99.90
52899;DHT22;38763;53.096;6.062;2023-02-01T14:28:20;7.80;99.90
52899;DHT22;38763;53.096;6.062;2023-02-01T14:30:48;7.80;99.90
52899;DHT22;38763;53.096;6.062;2023-02-01T14:33:25;7.80;99.90
52899;DHT22;38763;53.096;6.062;2023-02-01T14:36:10;7.80;99.90
52899;DHT22;38763;53.096;6.062;2023-02-01T14:38:38;7.70;99.90
52899;DHT22;38763;53.096;6.062;2023-02-01T14:44:24;7.80;99.90
52899;DHT22;38763;53.096;6.062;2023-02-01T14:50:04;7.90;99.90
52899;DHT22;38763;53.096;6.062;2023-02-01T14:52:47;8.00;99.90
52899;DHT22;38763;53.096;6.062;2023-02-01T14:55:24;8.00;99.90
52899;DHT22;38763;53.096;6.062;2023-02-01T14:57:53;8.00;99.90
52899;DHT22;38763;53.096;6.062;2023-02-01T15:00:22;8.00;99.90
52899;DHT22;38763;53.096;6.062;2023-02-01T15:02:49;8.00;99.90
52899;DHT22;38763;53.096;6.062;2023-02-01T15:07:57;7.80;99.90
52899;DHT22;38763;53.096;6.062;2023-02-01T15:10:24;8.00;99.90
52899;DHT22;38763;53.096;6.062;2023-02-01T15:12:50;7.90;99.90
52899;DHT22;38763;53.096;6.062;2023-02-01T15:15:19;7.90;99.90
52899;DHT22;38763;53.096;6.062;2023-02-01T15:17:55;7.80;99.90
52899;DHT22;38763;53.096;6.062;2023-02-01T15:20:26;7.80;99.90
52899;DHT22;38763;53.096;6.062;2023-02-01T15:23:04;7.80;99.90
52899;DHT22;38763;53.096;6.062;2023-02-01T15:25:35;7.70;99.90
52899;DHT22;38763;53.096;6.062;2023-02-01T15:28:02;7.70;99.90
52899;DHT22;38763;53.096;6.062;2023-02-01T15:30:33;7.70;99.90
52899;DHT22;38763;53.096;6.062;2023-02-01T15:33:15;7.60;99.90
52899;DHT22;38763;53.096;6.062;2023-02-01T15:35:46;7.60;99.90
52899;DHT22;38763;53.096;6.062;2023-02-01T15:43:26;7.60;99.90
52899;DHT22;38763;53.096;6.062;2023-02-01T15:45:56;7.60;99.90
52899;DHT22;38763;53.096;6.062;2023-02-01T15:48:25;7.50;99.90
52899;DHT22;38763;53.096;6.062;2023-02-01T15:50:53;7.40;99.90
52899;DHT22;38763;53.096;6.062;2023-02-01T15:53:23;7.40;99.90
52899;DHT22;38763;53.096;6.062;2023-02-01T15:55:55;7.40;99.90
52899;DHT22;38763;53.096;6.062;2023-02-01T15:58:23;7.30;99.90
52899;DHT22;38763;53.096;6.062;2023-02-01T16:00:56;7.30;99.90
52899;DHT22;38763;53.096;6.062;2023-02-01T16:03:39;7.20;99.90
52899;DHT22;38763;53.096;6.062;2023-02-01T16:06:28;7.20;99.90
52899;DHT22;38763;53.096;6.062;2023-02-01T16:08:59;7.10;99.90
52899;DHT22;38763;53.096;6.062;2023-02-01T16:11:31;7.10;99.90
52899;DHT22;38763;53.096;6.062;2023-02-01T16:13:58;7.10;99.90
52899;DHT22;38763;53.096;6.062;2023-02-01T16:16:26;7.10;99.90
52899;DHT22;38763;53.096;6.062;2023-02-01T16:18:53;7.10;99.90
52899;DHT22;38763;53.096;6.062;2023-02-01T16:21:19;7.00;99.90
52899;DHT22;38763;53.096;6.062;2023-02-01T16:23:49;7.00;99.90
52899;DHT22;38763;53.096;6.062;2023-02-01T16:26:16;7.00;99.90
52899;DHT22;38763;53.096;6.062;2023-02-01T16:28:41;7.00;99.90
52899;DHT22;38763;53.096;6.062;2023-02-01T16:31:16;7.00;99.90
52899;DHT22;38763;53.096;6.062;2023-02-01T16:33:54;7.00;99.90
52899;DHT22;38763;53.096;6.062;2023-02-01T16:36:20;7.00;99.90
52899;DHT22;38763;53.096;6.062;2023-02-01T16:38:47;7.00;99.90
52899;DHT22;38763;53.096;6.062;2023-02-01T16:41:16;7.00;99.90
52899;DHT22;38763;53.096;6.062;2023-02-01T16:43:42;6.90;99.90
52899;DHT22;38763;53.096;6.062;2023-02-01T16:46:14;6.90;99.90
52899;DHT22;38763;53.096;6.062;2023-02-01T16:48:41;6.90;99.90
52899;DHT22;38763;53.096;6.062;2023-02-01T16:51:10;6.90;99.90
52899;DHT22;38763;53.096;6.062;2023-02-01T16:53:37;6.90;99.90
52899;DHT22;38763;53.096;6.062;2023-02-01T16:56:17;6.90;99.90
52899;DHT22;38763;53.096;6.062;2023-02-01T16:58:43;6.80;99.90
52899;DHT22;38763;53.096;6.062;2023-02-01T17:01:14;6.80;99.90
52899;DHT22;38763;53.096;6.062;2023-02-01T17:03:41;6.80;99.90
52899;DHT22;38763;53.096;6.062;2023-02-01T17:06:08;6.70;99.90
52899;DHT22;38763;53.096;6.062;2023-02-01T17:08:37;6.60;99.90
52899;DHT22;38763;53.096;6.062;2023-02-01T17:11:05;6.60;99.90
52899;DHT22;38763;53.096;6.062;2023-02-01T17:13:32;6.60;99.90
52899;DHT22;38763;53.096;6.062;2023-02-01T17:16:04;6.60;99.90
52899;DHT22;38763;53.096;6.062;2023-02-01T17:18:32;6.60;99.90
52899;DHT22;38763;53.096;6.062;2023-02-01T17:20:59;6.60;99.90
52899;DHT22;38763;53.096;6.062;2023-02-01T17:23:26;6.60;99.90
52899;DHT22;38763;53.096;6.062;2023-02-01T17:25:52;6.60;99.90
52899;DHT22;38763;53.096;6.062;2023-02-01T17:28:18;6.60;99.90
52899;DHT22;38763;53.096;6.062;2023-02-01T17:30:43;6.60;99.90
52899;DHT22;38763;53.096;6.062;2023-02-01T17:33:28;6.60;99.90
52899;DHT22;38763;53.096;6.062;2023-02-01T17:35:55;6.50;99.90
52899;DHT22;38763;53.096;6.062;2023-02-01T17:38:21;6.50;99.90
52899;DHT22;38763;53.096;6.062;2023-02-01T17:40:47;6.50;99.90
52899;DHT22;38763;53.096;6.062;2023-02-01T17:43:15;6.50;99.90
52899;DHT22;38763;53.096;6.062;2023-02-01T17:45:57;6.60;99.90
52899;DHT22;38763;53.096;6.062;2023-02-01T17:48:23;6.50;99.90
52899;DHT22;38763;53.096;6.062;2023-02-01T17:50:50;6.50;99.90
52899;DHT22;38763;53.096;6.062;2023-02-01T17:53:20;6.50;99.90
52899;DHT22;38763;53.096;6.062;2023-02-01T17:55:49;6.50;99.90
52899;DHT22;38763;53.096;6.062;2023-02-01T17:58:15;6.40;99.90
52899;DHT22;38763;53.096;6.062;2023-02-01T18:00:43;6.40;99.90
52899;DHT22;38763;53.096;6.062;2023-02-01T18:03:22;6.40;99.90
52899;DHT22;38763;53.096;6.062;2023-02-01T18:05:49;6.30;99.90
52899;DHT22;38763;53.096;6.062;2023-02-01T18:08:18;6.20;99.90
52899;DHT22;38763;53.096;6.062;2023-02-01T18:10:51;6.20;99.90
52899;DHT22;38763;53.096;6.062;2023-02-01T18:13:19;6.20;99.90
52899;DHT22;38763;53.096;6.062;2023-02-01T18:15:44;6.20;99.90
52899;DHT22;38763;53.096;6.062;2023-02-01T18:18:10;6.10;99.90
52899;DHT22;38763;53.096;6.062;2023-02-01T18:20:36;6.10;99.90